Terminal Aerodrome Forecast
Issued by NWS

Home | Current Version | Previous Version | Graphics & Text | Print | Product List | Glossary On
Versions: 1 2 3 4 5 6 7 8 9 10 11 12 13 14 15 16
000
FTUS42 KMHX 271720
TAFOAJ
TAF
KOAJ 271720Z 2718/2818 19005KT P6SM BKN050
     FM280100 17006KT P6SM SCT200
     FM280800 21005KT 5SM BR BKN100
     FM281100 22005KT P6SM BKN070
      AMD LTD TO CLD VIS AND WIND=

USA.gov is the U.S. government's official web portal to all federal, state and local government web resources and services.